createdAt,value
2023-01-20T00:01:12.063Z,101044.09
2023-01-20T00:03:40.393Z,101041.16
2023-01-20T00:06:10.737Z,101041.94
2023-01-20T00:08:39.252Z,101044.31
2023-01-20T00:11:09.001Z,101037.66
2023-01-20T00:13:37.509Z,101052.00
2023-01-20T00:16:06.504Z,101049.34
2023-01-20T00:18:35.114Z,101036.88
2023-01-20T00:21:05.375Z,101041.88
2023-01-20T00:23:34.898Z,101045.59
2023-01-20T00:26:05.764Z,101041.09
2023-01-20T00:28:34.326Z,101038.13
2023-01-20T00:31:11.929Z,101049.28
2023-01-20T00:33:40.078Z,101042.66
2023-01-20T00:36:09.225Z,101044.53
2023-01-20T00:38:38.733Z,101047.22
2023-01-20T00:41:07.428Z,101055.19
2023-01-20T00:43:35.543Z,101046.66
2023-01-20T00:46:04.058Z,101045.59
2023-01-20T00:48:32.129Z,101052.47
2023-01-20T00:51:00.337Z,101055.13
2023-01-20T00:53:28.460Z,101065.00
2023-01-20T00:55:57.916Z,101069.00
2023-01-20T00:58:26.167Z,101054.88
2023-01-20T01:00:55.288Z,101058.56
2023-01-20T01:03:23.867Z,101058.31
2023-01-20T01:05:52.359Z,101061.22
2023-01-20T01:08:20.521Z,101058.06
2023-01-20T01:10:48.661Z,101067.94
2023-01-20T01:13:18.082Z,101077.50
2023-01-20T01:15:49.545Z,101088.47
2023-01-20T01:18:17.823Z,101088.75
2023-01-20T01:20:46.034Z,101098.34
2023-01-20T01:23:14.154Z,101101.81
2023-01-20T01:25:42.202Z,101094.88
2023-01-20T01:28:10.282Z,101102.59
2023-01-20T01:30:39.771Z,101102.59
2023-01-20T01:33:08.052Z,101102.59
2023-01-20T01:35:36.126Z,101116.44
2023-01-20T01:38:04.239Z,101114.84
2023-01-20T01:40:32.334Z,101111.69
2023-01-20T01:43:00.439Z,101119.13
2023-01-20T01:45:29.988Z,101117.56
2023-01-20T01:48:04.532Z,101124.47
2023-01-20T01:50:38.115Z,101118.34
2023-01-20T01:53:06.750Z,101124.47
2023-01-20T01:55:38.342Z,101125.00
2023-01-20T01:58:07.395Z,101123.13
2023-01-20T02:00:35.591Z,101129.25
2023-01-20T02:03:05.405Z,101119.38
2023-01-20T02:05:34.020Z,101115.94
2023-01-20T02:08:02.345Z,101121.56
2023-01-20T02:10:31.537Z,101127.69
2023-01-20T02:13:00.286Z,101129.81
2023-01-20T02:15:31.288Z,101121.56
2023-01-20T02:18:17.075Z,101131.44
2023-01-20T02:20:55.155Z,101126.09
2023-01-20T02:23:44.507Z,101138.63
2023-01-20T02:26:48.364Z,101136.50
2023-01-20T02:29:44.197Z,101137.88
2023-01-20T02:32:22.785Z,101136.25
2023-01-20T02:34:56.060Z,101146.41
2023-01-20T02:37:26.815Z,101142.94
2023-01-20T02:40:01.936Z,101143.44
2023-01-20T02:42:39.521Z,101144.25
2023-01-20T02:45:12.410Z,101140.00
2023-01-20T02:47:50.647Z,101143.72
2023-01-20T02:50:22.836Z,101141.56
2023-01-20T02:52:53.544Z,101145.59
2023-01-20T02:55:26.690Z,101142.63
2023-01-20T02:57:58.347Z,101147.44
2023-01-20T03:00:29.795Z,101147.97
2023-01-20T03:03:00.884Z,101148.75
2023-01-20T03:05:31.134Z,101149.84
2023-01-20T03:08:02.644Z,101156.47
2023-01-20T03:10:33.760Z,101157.81
2023-01-20T03:13:07.992Z,101155.13
2023-01-20T03:15:38.709Z,101152.97
2023-01-20T03:18:08.172Z,101158.56
2023-01-20T03:20:37.473Z,101163.09
2023-01-20T03:23:05.605Z,101155.91
2023-01-20T03:25:34.189Z,101165.50
2023-01-20T03:28:02.335Z,101172.38
2023-01-20T03:30:30.533Z,101184.09
2023-01-20T03:32:58.628Z,101171.03
2023-01-20T03:35:29.106Z,101176.03
2023-01-20T03:37:57.194Z,101179.53
2023-01-20T03:40:26.464Z,101179.25
2023-01-20T03:42:59.638Z,101173.91
2023-01-20T03:45:33.419Z,101172.31
2023-01-20T03:48:07.880Z,101178.44
2023-01-20T03:50:40.960Z,101176.59
2023-01-20T03:53:16.122Z,101180.91
2023-01-20T03:55:47.826Z,101179.91
2023-01-20T03:58:18.200Z,101192.69
2023-01-20T04:00:48.116Z,101181.00
2023-01-20T04:03:18.048Z,101195.94
2023-01-20T04:05:48.349Z,101192.22
2023-01-20T04:08:18.192Z,101183.72
2023-01-20T04:10:48.196Z,101189.03
2023-01-20T04:13:16.587Z,101188.75
2023-01-20T04:15:46.556Z,101189.03
2023-01-20T04:18:15.736Z,101192.78
2023-01-20T04:20:44.606Z,101194.91
2023-01-20T04:23:19.641Z,101196.53
2023-01-20T04:25:47.724Z,101189.56
2023-01-20T04:28:15.864Z,101194.41
2023-01-20T04:30:44.046Z,101186.41
2023-01-20T04:33:12.160Z,101187.19
2023-01-20T04:35:40.224Z,101189.06
2023-01-20T04:38:08.319Z,101190.16
2023-01-20T04:40:37.825Z,101186.41
2023-01-20T04:43:06.031Z,101193.31
2023-01-20T04:45:34.207Z,101202.13
2023-01-20T04:48:02.285Z,101189.56
2023-01-20T04:50:30.449Z,101194.91
2023-01-20T04:53:00.690Z,101201.88
2023-01-20T04:55:29.003Z,101198.63
2023-01-20T04:57:58.624Z,101205.03
2023-01-20T05:00:26.673Z,101205.03
2023-01-20T05:02:55.099Z,101207.13
2023-01-20T05:05:23.278Z,101218.34
2023-01-20T05:07:57.087Z,101209.28
2023-01-20T05:10:25.173Z,101217.78
2023-01-20T05:12:53.227Z,101219.38
2023-01-20T05:15:22.658Z,101218.56
2023-01-20T05:17:50.716Z,101221.25
2023-01-20T05:20:20.339Z,101215.13
2023-01-20T05:22:48.515Z,101228.44
2023-01-20T05:25:16.858Z,101217.56
2023-01-20T05:27:45.629Z,101222.09
2023-01-20T05:30:14.340Z,101235.94
2023-01-20T05:32:43.746Z,101236.75
2023-01-20T05:35:11.937Z,101245.00
2023-01-20T05:37:40.095Z,101254.59
2023-01-20T05:40:09.443Z,101245.50
2023-01-20T05:42:37.517Z,101254.78
2023-01-20T05:45:06.576Z,101248.66
2023-01-20T05:47:34.665Z,101252.41
2023-01-20T05:50:04.439Z,101254.28
2023-01-20T05:52:32.524Z,101243.59
2023-01-20T05:55:00.573Z,101253.19
2023-01-20T05:57:28.673Z,101260.41
2023-01-20T05:59:56.728Z,101246.59
2023-01-20T06:02:24.863Z,101253.50
2023-01-20T06:04:52.973Z,101251.31
2023-01-20T06:07:22.460Z,101243.91
2023-01-20T06:09:50.583Z,101256.19
2023-01-20T06:12:20.161Z,101260.72
2023-01-20T06:14:48.247Z,101261.50
2023-01-20T06:17:16.600Z,101259.91
2023-01-20T06:19:44.685Z,101262.84
2023-01-20T06:22:15.297Z,101262.03
2023-01-20T06:24:44.793Z,101267.59
2023-01-20T06:27:13.746Z,101252.72
2023-01-20T06:29:41.975Z,101271.06
2023-01-20T06:32:10.044Z,101250.25
2023-01-20T06:34:38.192Z,101267.03
2023-01-20T06:37:06.266Z,101264.63
2023-01-20T06:39:34.388Z,101259.31
2023-01-20T06:42:03.833Z,101267.31
2023-01-20T06:44:31.910Z,101266.22
2023-01-20T06:46:59.978Z,101262.47
2023-01-20T06:49:28.264Z,101269.69
2023-01-20T06:51:56.340Z,101275.31
2023-01-20T06:54:24.513Z,101275.31
2023-01-20T06:56:52.717Z,101280.34
2023-01-20T06:59:22.141Z,101290.25
2023-01-20T07:01:50.473Z,101292.38
2023-01-20T07:04:18.826Z,101290.06
2023-01-20T07:06:46.916Z,101292.19
2023-01-20T07:09:15.042Z,101301.00
2023-01-20T07:11:43.155Z,101305.50
2023-01-20T07:14:11.262Z,101311.41
2023-01-20T07:16:40.835Z,101313.56
2023-01-20T07:19:08.970Z,101314.88
2023-01-20T07:21:37.066Z,101317.56
2023-01-20T07:24:05.900Z,101321.81
2023-01-20T07:26:34.033Z,101314.88
2023-01-20T07:29:02.326Z,101314.34
2023-01-20T07:31:31.400Z,101318.91
2023-01-20T07:34:01.119Z,101321.56
2023-01-20T07:36:29.373Z,101326.63
2023-01-20T07:38:57.459Z,101320.19
2023-01-20T07:41:25.489Z,101323.94
2023-01-20T07:43:54.341Z,101330.88
2023-01-20T07:46:22.972Z,101337.81
2023-01-20T07:48:51.062Z,101342.06
2023-01-20T07:51:20.745Z,101345.28
2023-01-20T07:53:50.969Z,101353.81
2023-01-20T07:56:20.943Z,101352.50
2023-01-20T07:58:50.610Z,101349.03
2023-01-20T08:01:20.413Z,101350.63
2023-01-20T08:03:48.987Z,101358.09
2023-01-20T08:06:19.207Z,101359.69
2023-01-20T08:08:48.941Z,101358.91
2023-01-20T08:11:18.373Z,101366.91
2023-01-20T08:13:47.034Z,101365.25
2023-01-20T08:16:17.269Z,101373.03
2023-01-20T08:18:45.702Z,101358.84
2023-01-20T08:21:21.469Z,101373.53
2023-01-20T08:23:51.108Z,101366.03
2023-01-20T08:26:20.469Z,101373.53
2023-01-20T08:28:48.634Z,101366.03
2023-01-20T08:31:19.778Z,101360.41
2023-01-20T08:33:48.582Z,101368.66
2023-01-20T08:36:18.944Z,101363.84
2023-01-20T08:38:47.760Z,101369.16
2023-01-20T08:41:19.223Z,101370.75
2023-01-20T08:43:47.783Z,101366.22
2023-01-20T08:46:17.492Z,101368.38
2023-01-20T08:48:45.968Z,101364.34
2023-01-20T08:51:15.964Z,101367.00
2023-01-20T08:53:44.726Z,101355.81
2023-01-20T08:56:13.806Z,101370.75
2023-01-20T08:58:43.307Z,101379.56
2023-01-20T09:01:12.377Z,101373.41
2023-01-20T09:03:43.405Z,101367.00
2023-01-20T09:06:14.034Z,101368.59
2023-01-20T09:08:42.674Z,101367.53
2023-01-20T09:11:12.575Z,101366.72
2023-01-20T09:13:40.669Z,101369.13
2023-01-20T09:16:12.330Z,101363.81
2023-01-20T09:18:40.718Z,101364.31
2023-01-20T09:21:08.849Z,101364.84
2023-01-20T09:23:38.651Z,101366.72
2023-01-20T09:26:08.437Z,101369.38
2023-01-20T09:28:37.027Z,101369.13
2023-01-20T09:31:06.989Z,101357.09
2023-01-20T09:33:39.092Z,101372.81
2023-01-20T09:36:08.828Z,101378.16
2023-01-20T09:38:54.499Z,101384.28
2023-01-20T09:41:46.347Z,101389.91
2023-01-20T09:44:25.153Z,101388.03
2023-01-20T09:47:22.108Z,101386.97
2023-01-20T09:50:25.196Z,101385.88
2023-01-20T09:53:03.703Z,101393.88
2023-01-20T09:55:42.102Z,101405.63
2023-01-20T09:58:17.371Z,101407.22
2023-01-20T10:00:49.900Z,101411.78
2023-01-20T10:03:21.593Z,101411.25
2023-01-20T10:05:51.923Z,101411.25
2023-01-20T10:08:22.389Z,101416.59
2023-01-20T10:10:53.740Z,101412.84
2023-01-20T10:13:25.430Z,101419.25
2023-01-20T10:15:55.801Z,101416.59
2023-01-20T10:18:31.367Z,101414.50
2023-01-20T10:21:07.865Z,101410.25
2023-01-20T10:23:41.159Z,101414.75
2023-01-20T10:26:12.928Z,101411.56
2023-01-20T10:28:43.308Z,101409.19
2023-01-20T10:31:12.635Z,101418.78
2023-01-20T10:33:43.929Z,101411.84
2023-01-20T10:36:16.701Z,101412.94
2023-01-20T10:38:52.979Z,101407.09
2023-01-20T10:41:25.364Z,101406.81
2023-01-20T10:43:53.523Z,101404.44
2023-01-20T10:46:40.854Z,101402.56
2023-01-20T10:49:25.552Z,101403.66
2023-01-20T10:52:08.549Z,101398.63
2023-01-20T10:54:42.094Z,101398.06
2023-01-20T10:57:15.771Z,101399.94
2023-01-20T10:59:48.365Z,101385.28
2023-01-20T11:02:19.169Z,101385.28
2023-01-20T11:05:00.415Z,101389.56
2023-01-20T11:07:31.101Z,101377.56
2023-01-20T11:10:01.050Z,101383.69
2023-01-20T11:12:31.516Z,101393.56
2023-01-20T11:15:01.616Z,101387.69
2023-01-20T11:17:29.664Z,101394.88
2023-01-20T11:19:58.845Z,101382.63
2023-01-20T11:22:30.862Z,101381.03
2023-01-20T11:24:59.965Z,101386.38
2023-01-20T11:27:29.908Z,101392.22
2023-01-20T11:30:00.701Z,101379.97
2023-01-20T11:32:31.509Z,101378.91
2023-01-20T11:35:00.239Z,101383.72
2023-01-20T11:37:37.177Z,101378.09
2023-01-20T11:40:19.231Z,101385.31
2023-01-20T11:42:49.106Z,101378.91
2023-01-20T11:45:29.394Z,101373.56
2023-01-20T11:48:10.942Z,101378.66
2023-01-20T11:50:40.929Z,101371.97
2023-01-20T11:53:23.256Z,101371.16
2023-01-20T11:55:53.459Z,101372.75
2023-01-20T11:58:23.467Z,101365.03
2023-01-20T12:01:01.272Z,101354.88
2023-01-20T12:03:46.211Z,101363.94
2023-01-20T12:06:17.649Z,101366.03
2023-01-20T12:08:51.426Z,101368.66
2023-01-20T12:11:24.831Z,101373.72
2023-01-20T12:14:19.845Z,101366.78
2023-01-20T12:16:51.100Z,101377.16
2023-01-20T12:19:20.446Z,101369.94
2023-01-20T12:21:51.879Z,101374.47
2023-01-20T12:24:35.279Z,101368.56
2023-01-20T12:27:12.448Z,101375.50
2023-01-20T12:29:44.965Z,101376.31
2023-01-20T12:32:13.004Z,101374.47
2023-01-20T12:34:41.083Z,101380.31
2023-01-20T12:37:14.390Z,101380.31
2023-01-20T12:39:51.903Z,101374.19
2023-01-20T12:42:47.525Z,101377.13
2023-01-20T12:45:24.215Z,101378.97
2023-01-20T12:48:03.008Z,101374.19
2023-01-20T12:50:39.296Z,101378.44
2023-01-20T12:53:22.036Z,101379.78
2023-01-20T12:56:00.861Z,101373.38
2023-01-20T12:58:40.218Z,101372.59
2023-01-20T13:01:31.407Z,101383.25
2023-01-20T13:04:12.887Z,101389.13
2023-01-20T13:07:12.056Z,101393.38
2023-01-20T13:09:55.029Z,101385.66
2023-01-20T13:12:44.840Z,101388.59
2023-01-20T13:15:20.335Z,101386.19
2023-01-20T13:18:15.200Z,101394.72
2023-01-20T13:20:45.875Z,101394.16
2023-01-20T13:23:16.023Z,101403.75
2023-01-20T13:25:46.297Z,101409.34
2023-01-20T13:28:20.546Z,101412.50
2023-01-20T13:30:51.312Z,101409.03
2023-01-20T13:33:36.518Z,101419.16
2023-01-20T13:36:17.050Z,101409.56
2023-01-20T13:38:49.301Z,101409.28
2023-01-20T13:41:48.647Z,101417.28
2023-01-20T13:44:35.338Z,101424.50
2023-01-20T13:47:03.897Z,101420.50
2023-01-20T13:49:51.774Z,101426.63
2023-01-20T13:52:58.729Z,101419.13
2023-01-20T13:55:29.209Z,101424.19
2023-01-20T13:57:57.359Z,101425.03
2023-01-20T14:00:26.845Z,101429.28
2023-01-20T14:02:54.949Z,101430.59
2023-01-20T14:05:32.576Z,101435.69
2023-01-20T14:08:01.000Z,101438.88
2023-01-20T14:10:29.699Z,101449.56
2023-01-20T14:12:57.775Z,101446.88
2023-01-20T14:15:34.037Z,101436.22
2023-01-20T14:18:02.482Z,101441.56
2023-01-20T14:20:31.413Z,101442.34
2023-01-20T14:23:34.199Z,101447.41
2023-01-20T14:26:08.563Z,101441.56
2023-01-20T14:28:42.687Z,101449.78
2023-01-20T14:31:20.239Z,101453.25
2023-01-20T14:33:51.907Z,101458.09
2023-01-20T14:36:21.249Z,101466.09
2023-01-20T14:38:57.662Z,101465.28
2023-01-20T14:41:32.484Z,101470.63
2023-01-20T14:44:01.163Z,101471.44
2023-01-20T14:46:32.922Z,101482.13
2023-01-20T14:49:01.546Z,101486.38
2023-01-20T14:51:29.854Z,101486.91
2023-01-20T14:54:34.697Z,101484.75
2023-01-20T14:57:12.732Z,101498.38
2023-01-20T14:59:40.773Z,101489.81
2023-01-20T15:02:21.615Z,101498.13
2023-01-20T15:04:49.880Z,101497.84
2023-01-20T15:07:21.226Z,101497.03
2023-01-20T15:09:55.649Z,101505.06
2023-01-20T15:12:52.372Z,101505.06
2023-01-20T15:15:29.035Z,101513.06
2023-01-20T15:18:17.537Z,101517.09
2023-01-20T15:20:48.318Z,101520.56
2023-01-20T15:23:20.392Z,101521.06
2023-01-20T15:25:49.828Z,101530.97
2023-01-20T15:28:28.888Z,101530.69
2023-01-20T15:30:58.645Z,101544.59
2023-01-20T15:33:28.218Z,101546.47
2023-01-20T15:35:57.735Z,101551.53
2023-01-20T15:38:33.196Z,101552.03
2023-01-20T15:41:01.265Z,101561.13
2023-01-20T15:43:29.384Z,101565.94
2023-01-20T15:45:57.454Z,101565.94
2023-01-20T15:48:25.508Z,101575.56
2023-01-20T15:50:54.965Z,101580.34
2023-01-20T15:53:23.026Z,101586.22
2023-01-20T15:55:52.719Z,101590.50
2023-01-20T15:58:25.666Z,101591.28
2023-01-20T16:00:54.981Z,101591.84
2023-01-20T16:03:23.406Z,101596.13
2023-01-20T16:05:52.049Z,101599.59
2023-01-20T16:08:23.365Z,101618.56
2023-01-20T16:10:51.598Z,101610.78
2023-01-20T16:13:19.628Z,101610.78
2023-01-20T16:15:47.655Z,101626.81
2023-01-20T16:18:17.077Z,101623.63
2023-01-20T16:20:46.617Z,101632.72
2023-01-20T16:23:15.311Z,101639.13
2023-01-20T16:25:44.756Z,101645.00
2023-01-20T16:28:14.733Z,101644.19
2023-01-20T16:30:43.073Z,101651.41
2023-01-20T16:33:19.606Z,101654.06
2023-01-20T16:35:48.587Z,101660.47
2023-01-20T16:38:18.353Z,101667.69
2023-01-20T16:40:50.432Z,101667.97
2023-01-20T16:43:18.930Z,101675.97
2023-01-20T16:45:52.624Z,101682.66
2023-01-20T16:48:21.261Z,101675.44
2023-01-20T16:50:49.502Z,101682.38
2023-01-20T16:53:18.395Z,101686.91
2023-01-20T16:55:49.118Z,101684.00
2023-01-20T16:58:17.987Z,101687.97
2023-01-20T17:00:46.075Z,101690.66
2023-01-20T17:03:14.241Z,101708.56
2023-01-20T17:05:42.397Z,101713.09
2023-01-20T17:08:10.890Z,101710.69
2023-01-20T17:10:38.974Z,101720.03
2023-01-20T17:15:06.086Z,101720.03
2023-01-20T17:17:38.550Z,101735.25
2023-01-20T17:20:10.531Z,101733.91
2023-01-20T17:22:40.181Z,101743.25
2023-01-20T17:25:10.755Z,101741.13
2023-01-20T17:27:39.175Z,101751.81
2023-01-20T17:30:11.756Z,101763.28
2023-01-20T17:32:40.061Z,101768.34
2023-01-20T17:35:09.129Z,101772.63
2023-01-20T17:37:37.446Z,101771.03
2023-01-20T17:40:07.461Z,101779.03
2023-01-20T17:42:35.742Z,101781.97
2023-01-20T17:45:04.333Z,101785.44
2023-01-20T17:47:33.968Z,101791.59
2023-01-20T17:50:02.342Z,101799.31
2023-01-20T17:52:30.603Z,101793.75
2023-01-20T17:54:58.983Z,101802.00
2023-01-20T17:57:28.058Z,101813.22
2023-01-20T17:59:56.293Z,101815.09
2023-01-20T18:02:24.587Z,101813.75
2023-01-20T18:04:54.721Z,101820.16
2023-01-20T18:07:23.027Z,101818.84
2023-01-20T18:09:51.285Z,101829.50
2023-01-20T18:12:21.425Z,101831.88
2023-01-20T18:14:49.694Z,101830.84
2023-01-20T18:17:17.952Z,101833.50
2023-01-20T18:19:46.721Z,101838.56
2023-01-20T18:22:16.324Z,101846.31
2023-01-20T18:24:44.955Z,101850.84
2023-01-20T18:27:14.833Z,101853.22
2023-01-20T18:29:43.117Z,101857.50
2023-01-20T18:32:11.521Z,101864.44
2023-01-20T18:34:39.811Z,101868.69
2023-01-20T18:37:08.246Z,101872.16
2023-01-20T18:39:37.960Z,101886.78
2023-01-20T18:42:06.680Z,101892.66
2023-01-20T18:44:35.613Z,101898.50
2023-01-20T18:47:04.744Z,101899.28
2023-01-20T18:49:33.056Z,101897.44
2023-01-20T18:52:01.408Z,101904.34
2023-01-20T18:54:32.797Z,101906.97
2023-01-20T18:57:03.762Z,101909.38
2023-01-20T18:59:32.289Z,101915.22
2023-01-20T19:02:00.556Z,101919.75
2023-01-20T19:04:29.894Z,101918.09
2023-01-20T19:06:58.545Z,101925.03
2023-01-20T19:09:27.368Z,101928.75
2023-01-20T19:11:55.707Z,101935.66
2023-01-20T19:14:25.362Z,101935.34
2023-01-20T19:16:53.631Z,101945.75
2023-01-20T19:19:22.175Z,101940.09
2023-01-20T19:21:52.779Z,101949.16
2023-01-20T19:24:22.698Z,101948.84
2023-01-20T19:26:51.030Z,101957.91
2023-01-20T19:29:19.771Z,101961.91
2023-01-20T19:31:51.682Z,101966.69
2023-01-20T19:34:19.998Z,101981.63
2023-01-20T19:36:48.327Z,101980.00
2023-01-20T19:39:16.797Z,101993.56
2023-01-20T19:41:45.083Z,101991.97
2023-01-20T19:44:14.306Z,101994.09
2023-01-20T19:46:42.836Z,102004.44
2023-01-20T19:49:13.406Z,102014.28
2023-01-20T19:51:41.816Z,102027.06
2023-01-20T19:54:12.684Z,102023.28
2023-01-20T19:56:41.474Z,102036.06
2023-01-20T19:59:13.173Z,102037.13
2023-01-20T20:01:41.526Z,102039.25
2023-01-20T20:04:13.821Z,102047.47
2023-01-20T20:06:47.730Z,102054.13
2023-01-20T20:09:18.562Z,102050.34
2023-01-20T20:11:47.248Z,102057.53
2023-01-20T20:14:17.976Z,102062.06
2023-01-20T20:16:46.676Z,102066.31
2023-01-20T20:19:19.226Z,102070.84
2023-01-20T20:21:48.079Z,102070.03
2023-01-20T20:24:18.993Z,102073.78
2023-01-20T20:26:48.904Z,102075.88
2023-01-20T20:29:19.516Z,102080.16
2023-01-20T20:31:48.392Z,102082.25
2023-01-20T20:34:20.375Z,102087.56
2023-01-20T20:36:48.853Z,102101.94
2023-01-20T20:39:19.786Z,102098.22
2023-01-20T20:41:48.102Z,102108.06
2023-01-20T20:44:16.684Z,102107.28
2023-01-20T20:46:44.992Z,102111.00
2023-01-20T20:49:15.831Z,102120.59
2023-01-20T20:51:45.585Z,102117.94
2023-01-20T20:54:16.817Z,102121.66
2023-01-20T20:56:45.928Z,102130.69
2023-01-20T20:59:14.656Z,102128.03
2023-01-20T21:01:43.117Z,102131.75
2023-01-20T21:04:12.065Z,102132.00
2023-01-20T21:06:40.385Z,102141.28
2023-01-20T21:09:10.458Z,102149.53
2023-01-20T21:11:39.231Z,102151.66
2023-01-20T21:14:08.539Z,102155.59
2023-01-20T21:16:37.952Z,102163.03
2023-01-20T21:19:06.527Z,102160.63
2023-01-20T21:21:34.921Z,102166.16
2023-01-20T21:24:03.556Z,102170.94
2023-01-20T21:26:33.191Z,102176.53
2023-01-20T21:29:03.776Z,102170.66
2023-01-20T21:31:34.342Z,102181.28
2023-01-20T21:34:03.622Z,102181.75
2023-01-20T21:36:34.544Z,102182.03
2023-01-20T21:39:02.666Z,102185.75
2023-01-20T21:41:32.655Z,102201.13
2023-01-20T21:44:18.225Z,102202.44
2023-01-20T21:46:46.619Z,102205.91
2023-01-20T21:49:32.538Z,102210.69
2023-01-20T21:52:18.059Z,102212.75
2023-01-20T21:54:46.784Z,102212.19
2023-01-20T21:57:16.750Z,102211.66
2023-01-20T21:59:45.699Z,102225.22
2023-01-20T22:02:15.049Z,102225.44
2023-01-20T22:04:43.744Z,102228.09
2023-01-20T22:07:12.056Z,102230.75
2023-01-20T22:09:40.659Z,102233.66
2023-01-20T22:12:09.411Z,102243.50
2023-01-20T22:14:39.621Z,102256.00
2023-01-20T22:17:10.014Z,102248.28
2023-01-20T22:19:39.202Z,102255.66
2023-01-20T22:22:08.177Z,102261.00
2023-01-20T22:24:36.725Z,102266.31
2023-01-20T22:27:05.190Z,102278.81
2023-01-20T22:29:33.461Z,102284.94
2023-01-20T22:32:04.302Z,102289.47
2023-01-20T22:34:32.793Z,102289.72
2023-01-20T22:37:01.694Z,102295.03
2023-01-20T22:39:30.297Z,102296.34
2023-01-20T22:41:58.603Z,102291.72
2023-01-20T22:44:26.992Z,102293.59
2023-01-20T22:46:55.316Z,102294.88
2023-01-20T22:49:24.967Z,102307.38
2023-01-20T22:51:55.865Z,102301.25
2023-01-20T22:54:24.123Z,102308.69
2023-01-20T22:56:52.572Z,102317.72
2023-01-20T22:59:20.881Z,102324.88
2023-01-20T23:01:49.210Z,102330.44
2023-01-20T23:04:17.561Z,102336.81
2023-01-20T23:06:47.204Z,102341.31
2023-01-20T23:09:15.537Z,102338.91
2023-01-20T23:11:43.859Z,102352.44
2023-01-20T23:14:13.599Z,102353.50
2023-01-20T23:16:43.020Z,102357.44
2023-01-20T23:19:11.955Z,102359.53
2023-01-20T23:21:41.034Z,102360.78
2023-01-20T23:24:10.761Z,102359.97
2023-01-20T23:26:39.021Z,102366.34
2023-01-20T23:29:07.271Z,102368.22
2023-01-20T23:31:35.682Z,102376.44
2023-01-20T23:34:04.085Z,102373.22
2023-01-20T23:36:32.392Z,102379.34
2023-01-20T23:39:00.785Z,102376.09
2023-01-20T23:41:30.455Z,102385.91
2023-01-20T23:43:58.704Z,102372.38
2023-01-20T23:46:27.018Z,102378.97
2023-01-20T23:48:55.327Z,102381.88
2023-01-20T23:51:23.685Z,102378.41
2023-01-20T23:53:52.232Z,102396.25
2023-01-20T23:56:23.634Z,102397.03
2023-01-20T23:58:53.647Z,102397.84
